X  Κλείσε Στοιχεία αεροπορικών μετεωρολογικών δεδομένων METAR     EHKD De Kooy Airport
θερμοκρασία
17°C θερμοκρασία
12°C Σημείο δρόσου
73% Υγρασία



Ανεμος
34 KM/H
21 MPH
9 M/S
18 KTS



230°
ND
Τρέχουσες συνθήκες

Μερικώς συννεφιασμένος Μερικώς συννεφιασμένος
πίεση 1009.82 (hPa) - 29.82 (inHg)
Ορατότητα 6 (μίλι) - 9.7 (km)
Aεροδρόμιο
Κωδικός αεροδρομίου EHKD

Τοποθεσία: De Kooy Airport
Απόσταση: 34 (km)

Metar:
EHKD 140958Z AUTO 23018KT 190V260 9999 FEW019 SCT022 OVC065 17/12 Q1010 BLU

ώρα: 14-07-2024 11:58 CEST